Time;durP1;ratioP1;P1;durP2;ratioP2;P2;SDS_P1;SDS_P2;PMS_P1;PMS_P2;Temp;Humidity;BMP_temperature;BMP_pressure;BME280_temperature;BME280_humidity;BME280_pressure;Samples;Min_cycle;Max_cycle;Signal;HPM_P1;HPM_P2
2024/02/21 00:01:55;;;;;;;1.30;0.40;;;;;;;14.56;100.00;99880.63;7397686;19;20086;-58
2024/02/21 00:04:21;;;;;;;0.70;0.47;;;;;;;14.65;100.00;99872.78;7394420;19;20366;-58
2024/02/21 00:06:47;;;;;;;0.20;0.20;;;;;;;14.73;100.00;99864.66;7395306;19;20010;-58
2024/02/21 00:09:13;;;;;;;0.80;0.40;;;;;;;14.81;100.00;99868.53;7395463;19;20026;-56
2024/02/21 00:11:39;;;;;;;0.70;0.28;;;;;;;14.85;100.00;99869.81;7395400;19;20018;-56
2024/02/21 00:14:06;;;;;;;0.10;0.10;;;;;;;14.88;100.00;99862.41;7399851;19;20033;-56
2024/02/21 00:16:32;;;;;;;0.88;0.32;;;;;;;14.91;100.00;99859.38;7395668;19;20015;-57
2024/02/21 00:18:59;;;;;;;1.60;0.40;;;;;;;14.93;100.00;99856.84;7398310;19;20022;-56
2024/02/21 00:21:25;;;;;;;2.67;0.75;;;;;;;14.96;100.00;99857.88;7395682;19;20007;-57
2024/02/21 00:23:51;;;;;;;2.50;0.52;;;;;;;14.97;100.00;99857.34;7395293;19;20018;-56
2024/02/21 00:26:17;;;;;;;5.03;0.40;;;;;;;14.98;100.00;99860.94;7399810;19;20019;-57
2024/02/21 00:28:44;;;;;;;0.90;0.43;;;;;;;15.02;100.00;99861.44;7393528;19;20017;-57
2024/02/21 00:31:10;;;;;;;0.20;0.20;;;;;;;15.04;100.00;99865.28;7393874;19;20340;-57
2024/02/21 00:33:37;;;;;;;0.43;0.40;;;;;;;15.06;100.00;99859.94;7396552;19;20032;-56
2024/02/21 00:36:03;;;;;;;0.43;0.43;;;;;;;15.10;100.00;99860.44;7395472;19;20011;-56
2024/02/21 00:38:29;;;;;;;0.13;0.05;;;;;;;15.10;100.00;99851.25;7399951;19;20022;-57
2024/02/21 00:40:55;;;;;;;0.20;0.10;;;;;;;15.10;100.00;99849.22;7396667;19;20018;-57
2024/02/21 00:43:23;;;;;;;0.22;0.00;;;;;;;15.14;100.00;99844.13;7394964;19;20028;-56
2024/02/21 00:45:50;;;;;;;0.40;0.30;;;;;;;15.13;100.00;99839.81;7396261;19;20032;-56
2024/02/21 00:48:16;;;;;;;0.17;0.17;;;;;;;15.13;100.00;99839.81;7396683;19;20184;-57
2024/02/21 00:50:42;;;;;;;0.85;0.77;;;;;;;15.13;100.00;99834.19;7393218;19;20011;-56
2024/02/21 00:53:09;;;;;;;0.30;0.10;;;;;;;15.13;100.00;99822.97;7396107;19;20021;-57
2024/02/21 00:55:36;;;;;;;0.65;0.35;;;;;;;15.11;100.00;99811.50;7394205;19;20092;-57
2024/02/21 00:58:02;;;;;;;0.20;0.20;;;;;;;15.13;100.00;99806.16;7395947;19;20074;-57
2024/02/21 01:00:28;;;;;;;0.20;0.13;;;;;;;15.11;100.00;99800.28;7396037;19;20017;-56
2024/02/21 01:02:54;;;;;;;0.75;0.22;;;;;;;15.13;100.00;99794.94;7394405;19;20017;-57
2024/02/21 01:05:20;;;;;;;0.93;0.08;;;;;;;15.13;100.00;99791.34;7395541;19;20017;-56
2024/02/21 01:07:47;;;;;;;0.10;0.10;;;;;;;15.15;100.00;99769.94;7394232;19;20022;-57
2024/02/21 01:10:13;;;;;;;0.82;0.50;;;;;;;15.14;100.00;99768.38;7395611;19;20010;-57
2024/02/21 01:12:39;;;;;;;2.20;0.30;;;;;;;15.17;100.00;99764.56;7395807;19;20042;-56
2024/02/21 01:15:05;;;;;;;2.00;0.10;;;;;;;15.20;100.00;99757.94;7395123;19;20458;-57
2024/02/21 01:17:32;;;;;;;0.50;0.20;;;;;;;15.18;100.00;99752.06;7394099;19;20024;-57
2024/02/21 01:19:58;;;;;;;1.05;0.40;;;;;;;15.15;100.00;99747.50;7400527;19;20018;-57
2024/02/21 01:22:24;;;;;;;4.88;0.57;;;;;;;15.14;100.00;99745.94;7393700;19;20015;-57
2024/02/21 01:24:50;;;;;;;1.65;0.50;;;;;;;15.16;100.00;99743.41;7395372;19;20028;-57
2024/02/21 01:27:16;;;;;;;1.85;1.02;;;;;;;15.15;100.00;99741.09;7394467;19;20020;-57
2024/02/21 01:29:42;;;;;;;0.32;0.32;;;;;;;15.09;100.00;99732.69;7392583;19;20502;-57
2024/02/21 01:32:08;;;;;;;0.63;0.20;;;;;;;15.07;100.00;99718.41;7395072;19;20066;-57
2024/02/21 01:34:34;;;;;;;0.32;0.32;;;;;;;15.05;100.00;99706.19;7394858;19;20036;-57
2024/02/21 01:37:04;;;;;;;0.75;0.32;;;;;;;15.00;100.00;99693.69;7395486;19;20022;-58
2024/02/21 01:39:30;;;;;;;0.60;0.20;;;;;;;15.04;100.00;99685.00;7392992;19;20011;-57
2024/02/21 01:41:58;;;;;;;0.82;0.43;;;;;;;15.04;100.00;99680.16;7394286;19;20014;-57
2024/02/21 01:44:25;;;;;;;0.50;0.20;;;;;;;15.00;100.00;99679.66;7393175;19;20017;-57
2024/02/21 01:46:52;;;;;;;7.38;0.57;;;;;;;15.01;100.00;99675.56;7397293;19;20015;-57
2024/02/21 01:49:20;;;;;;;0.15;0.05;;;;;;;14.97;100.00;99668.69;7396615;19;20018;-57
2024/02/21 01:51:47;;;;;;;0.73;0.52;;;;;;;14.97;100.00;99669.47;7397453;19;20011;-56
2024/02/21 01:54:15;;;;;;;0.88;0.13;;;;;;;23.84;97.63;99654.25;7393218;19;20396;-56
2024/02/21 01:56:42;;;;;;;0.30;0.13;;;;;;;15.97;100.00;99674.13;7393155;19;20018;-56
2024/02/21 01:59:10;;;;;;;0.40;0.40;;;;;;;15.41;100.00;99684.72;7393991;19;20033;-56
2024/02/21 02:01:36;;;;;;;1.75;0.30;;;;;;;15.28;100.00;99681.69;7393777;19;20031;-56
2024/02/21 02:04:05;;;;;;;2.50;0.57;;;;;;;15.23;100.00;99676.81;7393775;19;20014;-56
2024/02/21 02:06:31;;;;;;;0.28;0.17;;;;;;;15.19;100.00;99663.84;7393882;19;20498;-56
2024/02/21 02:08:57;;;;;;;0.30;0.28;;;;;;;15.20;100.00;99670.22;7391434;19;20032;-56
2024/02/21 02:11:23;;;;;;;2.80;1.00;;;;;;;15.15;100.00;99673.78;7393985;19;20010;-56
2024/02/21 02:13:50;;;;;;;1.00;0.55;;;;;;;15.14;100.00;99644.97;7392008;19;20412;-56
2024/02/21 02:16:16;;;;;;;1.08;0.30;;;;;;;15.15;100.00;99649.31;7392654;19;20017;-57
2024/02/21 02:18:42;;;;;;;0.47;0.30;;;;;;;15.12;100.00;99633.50;7395611;19;20502;-57
2024/02/21 02:21:21;;;;;;;4.22;0.52;;;;;;;15.12;100.00;99624.31;7393044;19;20070;-57
2024/02/21 02:23:47;;;;;;;1.23;0.40;;;;;;;15.12;100.00;99625.09;7391745;19;20017;-57
2024/02/21 02:26:13;;;;;;;8.77;1.30;;;;;;;15.06;100.00;99621.53;7392220;19;20014;-57
2024/02/21 02:28:40;;;;;;;3.80;0.90;;;;;;;15.09;100.00;99619.75;7392234;19;20078;-57
2024/02/21 02:31:06;;;;;;;7.20;1.27;;;;;;;15.07;100.00;99611.06;7392615;19;20010;-57
2024/02/21 02:33:32;;;;;;;1.35;0.43;;;;;;;15.07;100.00;99603.41;7397261;19;20029;-57
2024/02/21 02:35:58;;;;;;;4.70;0.93;;;;;;;15.08;100.00;99602.13;7392244;19;20010;-57
2024/02/21 02:38:24;;;;;;;0.98;0.52;;;;;;;15.11;100.00;99589.13;7391451;19;20487;-57
2024/02/21 02:40:51;;;;;;;2.47;0.20;;;;;;;15.10;100.00;99582.75;7391988;19;20044;-57
2024/02/21 02:43:17;;;;;;;2.08;0.50;;;;;;;15.06;100.00;99579.47;7391830;19;20354;-57
2024/02/21 02:45:43;;;;;;;1.83;0.60;;;;;;;15.04;100.00;99568.00;7392768;19;20011;-57
2024/02/21 02:48:09;;;;;;;0.98;0.63;;;;;;;15.03;100.00;99566.44;7392990;19;20006;-57
2024/02/21 02:50:35;;;;;;;0.98;0.28;;;;;;;15.01;100.00;99557.00;7396091;19;20014;-57
2024/02/21 02:53:01;;;;;;;2.92;0.63;;;;;;;14.97;100.00;99551.69;7392546;19;20014;-56
2024/02/21 02:55:27;;;;;;;1.65;0.28;;;;;;;15.03;100.00;99537.63;7391500;19;20510;-56
2024/02/21 02:57:54;;;;;;;0.85;0.30;;;;;;;15.45;100.00;99528.09;7391141;19;20066;-56
2024/02/21 03:00:20;;;;;;;1.17;0.40;;;;;;;15.10;100.00;99518.25;7391893;19;20030;-56
2024/02/21 03:02:49;;;;;;;2.92;0.43;;;;;;;15.06;100.00;99514.19;7391690;19;20370;-57
2024/02/21 03:05:19;;;;;;;5.30;0.98;;;;;;;15.01;100.00;99506.53;7391552;19;20014;-57
2024/02/21 03:07:47;;;;;;;0.10;0.10;;;;;;;15.00;100.00;99500.19;7390932;19;20050;-57
2024/02/21 03:10:13;;;;;;;0.55;0.52;;;;;;;15.00;100.00;99483.34;7391186;19;20036;-57
2024/02/21 03:12:40;;;;;;;0.20;0.20;;;;;;;15.00;100.00;99493.81;7393219;19;20010;-57
2024/02/21 03:15:06;;;;;;;1.65;0.35;;;;;;;14.97;100.00;99478.00;7398866;19;20007;-58
2024/02/21 03:17:36;;;;;;;2.60;0.57;;;;;;;14.94;100.00;99474.19;7398443;19;20027;-57
2024/02/21 03:20:05;;;;;;;0.70;0.25;;;;;;;14.96;100.00;99466.03;7398709;19;20451;-57
2024/02/21 03:22:33;;;;;;;1.20;0.40;;;;;;;14.99;100.00;99448.16;7398044;19;20015;-57
2024/02/21 03:24:59;;;;;;;4.63;0.35;;;;;;;15.00;100.00;99438.50;7398050;19;20033;-57
2024/02/21 03:27:25;;;;;;;0.20;0.20;;;;;;;14.99;100.00;99431.34;7396523;19;20032;-56
2024/02/21 03:29:52;;;;;;;0.57;0.50;;;;;;;14.99;100.00;99420.13;7393232;19;20006;-56
2024/02/21 03:32:18;;;;;;;2.40;0.35;;;;;;;14.98;100.00;99413.00;7402099;19;20011;-57
2024/02/21 03:34:44;;;;;;;0.35;0.30;;;;;;;14.98;100.00;99415.81;7399054;19;20018;-57
2024/02/21 03:37:10;;;;;;;0.35;0.32;;;;;;;14.97;100.00;99400.25;7398034;19;20011;-57
2024/02/21 03:39:37;;;;;;;0.85;0.25;;;;;;;14.98;100.00;99396.19;7397318;19;20023;-57
2024/02/21 03:42:06;;;;;;;2.85;1.27;;;;;;;14.99;100.00;99388.50;7397149;19;20022;-57
2024/02/21 03:44:32;;;;;;;0.75;0.20;;;;;;;14.97;100.00;99377.81;7402048;19;20021;-57
2024/02/21 03:46:59;;;;;;;2.60;1.05;;;;;;;14.96;100.00;99381.91;7401542;19;20017;-56
2024/02/21 03:49:26;;;;;;;1.13;0.60;;;;;;;14.98;100.00;99373.75;7398109;19;20097;-56
2024/02/21 03:51:52;;;;;;;1.65;0.68;;;;;;;14.99;100.00;99364.03;7396747;19;20018;-57
2024/02/21 03:54:19;;;;;;;5.70;0.98;;;;;;;14.99;100.00;99355.63;7395766;19;20368;-57
2024/02/21 03:56:47;;;;;;;0.75;0.45;;;;;;;14.97;100.00;99335.75;7402528;19;20331;-57
2024/02/21 03:59:13;;;;;;;1.70;0.45;;;;;;;14.98;100.00;99334.50;7397795;19;20010;-57
2024/02/21 04:01:39;;;;;;;0.88;0.32;;;;;;;14.97;100.00;99332.19;7397501;19;20026;-57
2024/02/21 04:04:06;;;;;;;5.72;0.75;;;;;;;14.92;100.00;99322.53;7397609;19;20480;-57
2024/02/21 04:06:32;;;;;;;0.60;0.60;;;;;;;14.91;100.00;99312.59;7396381;19;20022;-57
2024/02/21 04:08:58;;;;;;;0.30;0.30;;;;;;;14.88;100.00;99308.03;7395461;19;20328;-57
2024/02/21 04:11:24;;;;;;;5.05;0.40;;;;;;;14.90;100.00;99294.25;7398117;19;20409;-57
2024/02/21 04:13:51;;;;;;;1.27;0.77;;;;;;;14.87;100.00;99286.88;7397357;19;20032;-56
2024/02/21 04:16:17;;;;;;;3.03;0.35;;;;;;;14.83;100.00;99294.81;7398534;19;20013;-56
2024/02/21 04:18:44;;;;;;;1.38;0.20;;;;;;;14.82;100.00;99284.09;7396987;19;20035;-56
2024/02/21 04:21:10;;;;;;;1.58;0.65;;;;;;;14.84;100.00;99285.09;7395229;19;20014;-56
2024/02/21 04:23:36;;;;;;;1.85;0.28;;;;;;;14.85;100.00;99280.28;7396457;19;20690;-56
2024/02/21 04:26:02;;;;;;;0.82;0.40;;;;;;;14.85;100.00;99281.03;7393473;19;20018;-56
2024/02/21 04:28:28;;;;;;;1.13;0.38;;;;;;;14.83;100.00;99278.00;7396321;19;20007;-56
2024/02/21 04:30:55;;;;;;;0.10;0.10;;;;;;;14.85;100.00;99272.63;7396362;19;20014;-56
2024/02/21 04:33:21;;;;;;;0.98;0.10;;;;;;;14.86;100.00;99268.53;7395668;19;20015;-56
2024/02/21 04:35:47;;;;;;;0.00;0.00;;;;;;;14.87;100.00;99258.09;7395495;19;20078;-56
2024/02/21 04:38:14;;;;;;;0.17;0.15;;;;;;;14.88;100.00;99251.94;7395736;19;20018;-56
2024/02/21 04:40:40;;;;;;;1.58;0.10;;;;;;;14.91;100.00;99247.34;7395880;19;20013;-56
2024/02/21 04:43:06;;;;;;;0.45;0.45;;;;;;;14.91;100.00;99239.72;7396438;19;20070;-56
2024/02/21 04:45:32;;;;;;;0.10;0.10;;;;;;;14.92;100.00;99227.19;7395711;19;20466;-56
2024/02/21 04:47:59;;;;;;;0.38;0.15;;;;;;;14.91;100.00;99220.09;7396064;19;20090;-56
2024/02/21 04:50:25;;;;;;;0.10;0.00;;;;;;;14.94;100.00;99207.81;7394926;19;20082;-56
2024/02/21 04:52:51;;;;;;;0.82;0.20;;;;;;;14.91;100.00;99203.25;7396140;19;20110;-56
2024/02/21 04:55:17;;;;;;;0.10;0.00;;;;;;;14.92;100.00;99195.63;7396616;19;20011;-56
2024/02/21 04:57:43;;;;;;;0.22;0.20;;;;;;;14.89;100.00;99185.44;7396757;19;20033;-56
2024/02/21 05:00:10;;;;;;;0.30;0.30;;;;;;;14.89;100.00;99168.59;7394791;19;20713;-56
2024/02/21 05:02:36;;;;;;;0.73;0.30;;;;;;;14.89;100.00;99155.34;7395201;19;20014;-56
2024/02/21 05:05:03;;;;;;;0.55;0.40;;;;;;;14.87;100.00;99154.34;7395131;19;20398;-56
2024/02/21 05:07:29;;;;;;;0.13;0.05;;;;;;;14.86;100.00;99145.19;7399474;19;20022;-56
2024/02/21 05:09:55;;;;;;;0.20;0.20;;;;;;;14.87;100.00;99141.09;7393075;19;20014;-56
2024/02/21 05:12:21;;;;;;;0.10;0.10;;;;;;;14.89;100.00;99135.72;7393413;19;20011;-56
2024/02/21 05:14:47;;;;;;;9.20;0.30;;;;;;;14.87;100.00;99129.88;7395085;19;20014;-56
2024/02/21 05:17:13;;;;;;;0.13;0.13;;;;;;;14.87;100.00;99115.88;7395948;19;20454;-56
2024/02/21 05:19:39;;;;;;;0.20;0.20;;;;;;;14.89;100.00;99112.53;7399493;19;20478;-56
2024/02/21 05:22:05;;;;;;;0.32;0.17;;;;;;;14.89;100.00;99092.91;7395234;19;20010;-56
2024/02/21 05:24:31;;;;;;;0.22;0.20;;;;;;;14.86;100.00;99083.50;7395018;19;20027;-56
2024/02/21 05:26:57;;;;;;;0.10;0.00;;;;;;;14.86;100.00;99069.47;7394699;19;20010;-56
2024/02/21 05:29:24;;;;;;;0.10;0.00;;;;;;;14.83;100.00;99070.56;7396197;19;20028;-56
2024/02/21 05:31:50;;;;;;;0.10;0.10;;;;;;;14.85;100.00;99061.59;7394068;19;20021;-56
2024/02/21 05:34:20;;;;;;;0.10;0.10;;;;;;;14.85;100.00;99051.16;7394982;19;20021;-56
2024/02/21 05:36:46;;;;;;;0.20;0.20;;;;;;;14.85;100.00;99056.75;7393741;19;20336;-56
2024/02/21 05:39:18;;;;;;;0.30;0.30;;;;;;;14.85;100.00;99041.97;7393423;19;20028;-56
2024/02/21 05:41:45;;;;;;;0.10;0.00;;;;;;;14.82;100.00;99040.97;7397196;19;20014;-56
2024/02/21 05:44:12;;;;;;;2.40;0.70;;;;;;;15.62;100.00;99035.50;7393032;19;20015;-56
2024/02/21 05:46:38;;;;;;;0.73;0.45;;;;;;;15.31;100.00;99029.75;7396200;19;20018;-56
2024/02/21 05:49:04;;;;;;;2.72;0.32;;;;;;;14.93;100.00;99024.06;7394090;19;20010;-56
2024/02/21 05:51:34;;;;;;;2.25;0.15;;;;;;;14.81;100.00;99022.63;7396907;19;20010;-56
2024/02/21 05:54:00;;;;;;;1.55;0.20;;;;;;;14.75;100.00;99018.41;7397204;19;20010;-56
2024/02/21 05:56:26;;;;;;;0.15;0.10;;;;;;;14.71;100.00;99007.44;7394049;19;20022;-56
2024/02/21 05:58:52;;;;;;;0.65;0.25;;;;;;;14.65;100.00;98998.34;7392485;19;20540;-56
2024/02/21 06:01:20;;;;;;;0.47;0.10;;;;;;;14.58;100.00;98993.31;7393416;19;20360;-57
2024/02/21 06:03:47;;;;;;;0.10;0.10;;;;;;;14.57;100.00;98983.41;7395432;19;20007;-56
2024/02/21 06:06:14;;;;;;;5.00;0.70;;;;;;;14.52;100.00;98978.59;7395986;19;20010;-56
2024/02/21 06:08:41;;;;;;;0.20;0.20;;;;;;;14.50;100.00;98966.41;7391942;19;20015;-55
2024/02/21 06:11:07;;;;;;;0.50;0.20;;;;;;;14.48;100.00;98952.91;7392717;19;20476;-55
2024/02/21 06:13:33;;;;;;;0.20;0.20;;;;;;;14.45;100.00;98951.16;7393967;19;20011;-56
2024/02/21 06:15:59;;;;;;;1.95;0.77;;;;;;;14.40;100.00;98944.31;7392604;19;20015;-56
2024/02/21 06:18:25;;;;;;;0.95;0.20;;;;;;;14.37;100.00;98939.78;7394738;19;20044;-56
2024/02/21 06:20:51;;;;;;;0.10;0.10;;;;;;;14.29;100.00;98926.88;7393479;19;20474;-56
2024/02/21 06:23:18;;;;;;;0.38;0.38;;;;;;;14.27;100.00;98924.56;7394702;19;20466;-56
2024/02/21 06:25:44;;;;;;;0.40;0.30;;;;;;;14.25;100.00;98920.78;7393066;19;20477;-56
2024/02/21 06:42:12;;;;;;;5.60;1.83;;;;;;;13.93;100.00;98869.38;7427600;19;20348;-56
2024/02/21 06:44:40;;;;;;;2.45;0.88;;;;;;;14.54;100.00;98869.56;7426965;19;20048;-55
2024/02/21 06:47:07;;;;;;;5.97;0.93;;;;;;;13.97;100.00;98867.06;7425502;19;20529;-56
2024/02/21 06:49:34;;;;;;;6.65;1.45;;;;;;;13.86;100.00;98855.97;7422235;19;20014;-56
2024/02/21 06:52:00;;;;;;;3.33;1.38;;;;;;;13.84;100.00;98841.75;7428482;19;20087;-56
2024/02/21 06:54:26;;;;;;;3.58;0.63;;;;;;;13.82;100.00;98847.09;7428707;19;20385;-56
2024/02/21 06:56:52;;;;;;;0.55;0.55;;;;;;;13.77;100.00;98831.13;7428584;19;20017;-56
2024/02/21 06:59:18;;;;;;;13.15;1.70;;;;;;;13.79;100.00;98834.16;7428527;19;20014;-54
2024/02/21 07:01:48;;;;;;;0.82;0.82;;;;;;;13.76;100.00;98830.34;7428594;19;20014;-56
2024/02/21 07:04:15;;;;;;;0.38;0.38;;;;;;;13.75;100.00;98822.50;7428333;19;20011;-56
2024/02/21 07:06:41;;;;;;;5.60;0.88;;;;;;;13.77;100.00;98817.88;7426889;19;20062;-56
2024/02/21 07:09:07;;;;;;;1.75;0.80;;;;;;;13.81;100.00;98798.00;7427270;19;20358;-56
2024/02/21 07:11:33;;;;;;;4.00;0.82;;;;;;;13.77;100.00;98794.75;7424569;19;20374;-54
2024/02/21 07:13:59;;;;;;;0.43;0.38;;;;;;;13.80;100.00;98779.69;7427079;19;20006;-56
2024/02/21 07:16:26;;;;;;;1.35;0.93;;;;;;;13.82;100.00;98774.34;7428961;19;20013;-56
2024/02/21 07:18:52;;;;;;;0.47;0.47;;;;;;;13.78;100.00;98755.03;7427941;19;20006;-56
2024/02/21 07:21:18;;;;;;;1.98;1.33;;;;;;;13.81;100.00;98767.22;7426679;19;20066;-56
2024/02/21 07:23:44;;;;;;;0.68;0.45;;;;;;;13.76;100.00;98756.84;7428178;19;20081;-56
2024/02/21 07:26:10;;;;;;;2.38;0.68;;;;;;;13.80;100.00;98746.09;7425295;19;20470;-56
2024/02/21 07:28:37;;;;;;;0.82;0.82;;;;;;;13.82;100.00;98743.56;7426608;19;20007;-56
2024/02/21 07:31:03;;;;;;;0.38;0.38;;;;;;;13.79;100.00;98733.41;7423861;19;20024;-56
2024/02/21 07:33:30;;;;;;;2.83;0.75;;;;;;;13.81;100.00;98719.66;7427014;19;20014;-56
2024/02/21 07:35:56;;;;;;;2.47;0.88;;;;;;;13.81;100.00;98700.81;7427341;19;20493;-56
2024/02/21 07:38:22;;;;;;;1.25;0.38;;;;;;;13.85;100.00;98706.13;7425728;19;20014;-56
2024/02/21 07:40:49;;;;;;;0.55;0.30;;;;;;;13.87;100.00;98700.75;7424128;19;20014;-56
2024/02/21 07:43:15;;;;;;;0.47;0.47;;;;;;;13.88;100.00;98696.69;7396144;19;20027;-56
2024/02/21 07:45:41;;;;;;;2.28;1.27;;;;;;;13.91;100.00;98701.22;7397660;19;20033;-56
2024/02/21 07:48:07;;;;;;;2.45;1.05;;;;;;;13.94;100.00;98697.38;7396503;19;20014;-56
2024/02/21 07:50:33;;;;;;;1.50;0.65;;;;;;;13.95;100.00;98684.88;7394577;19;20530;-56
2024/02/21 07:52:59;;;;;;;0.20;0.20;;;;;;;13.99;100.00;98669.28;7397906;19;20010;-56
2024/02/21 07:55:25;;;;;;;0.30;0.25;;;;;;;14.01;100.00;98660.41;7398442;19;20010;-56
2024/02/21 07:57:51;;;;;;;0.20;0.20;;;;;;;14.00;100.00;98658.88;7398129;19;20010;-56
2024/02/21 08:00:21;;;;;;;6.13;0.70;;;;;;;14.04;100.00;98662.13;7396626;19;20082;-56
2024/02/21 08:02:50;;;;;;;1.15;0.82;;;;;;;14.04;100.00;98659.31;7398788;19;20015;-56
2024/02/21 08:05:17;;;;;;;1.38;0.20;;;;;;;14.05;100.00;98652.44;7396257;19;20043;-55
2024/02/21 08:07:43;;;;;;;1.27;0.55;;;;;;;14.10;100.00;98643.19;7396951;19;20014;-55
2024/02/21 08:10:09;;;;;;;1.45;0.73;;;;;;;14.14;100.00;98641.63;7395196;19;20028;-56
2024/02/21 08:12:35;;;;;;;0.10;0.10;;;;;;;14.15;100.00;98631.19;7397652;19;20400;-56
2024/02/21 08:15:07;;;;;;;0.40;0.20;;;;;;;14.15;100.00;98617.94;7396374;19;20080;-56
2024/02/21 08:17:33;;;;;;;7.43;1.30;;;;;;;14.17;100.00;98601.38;7397408;19;20470;-56
2024/02/21 08:19:59;;;;;;;0.65;0.65;;;;;;;14.17;100.00;98587.38;7396479;19;20027;-56
2024/02/21 08:22:26;;;;;;;0.40;0.40;;;;;;;14.21;100.00;98584.25;7395258;19;20022;-56
2024/02/21 08:24:52;;;;;;;0.10;0.10;;;;;;;14.21;100.00;98578.66;7399288;19;20018;-56
2024/02/21 08:27:18;;;;;;;1.38;0.35;;;;;;;31.14;60.30;98528.06;7398730;19;20041;-56
2024/02/21 08:29:44;;;;;;;0.68;0.40;;;;;;;36.29;37.71;98521.38;7395646;19;20015;-56
2024/02/21 08:32:10;;;;;;;1.58;0.30;;;;;;;23.00;63.81;98539.44;7398594;19;20021;-56
2024/02/21 08:34:37;;;;;;;1.92;0.20;;;;;;;36.26;36.53;98511.88;7398910;19;20023;-56
2024/02/21 08:37:03;;;;;;;0.32;0.20;;;;;;;37.88;32.47;98502.19;7396074;19;20393;-56
2024/02/21 08:39:30;;;;;;;2.38;0.57;;;;;;;38.60;30.77;98490.97;7394506;19;20015;-56
2024/02/21 08:41:56;;;;;;;0.10;0.10;;;;;;;38.79;30.08;98479.59;7395997;19;20015;-57
2024/02/21 08:44:28;;;;;;;0.10;0.10;;;;;;;38.89;28.74;98476.81;7396083;19;20387;-56
2024/02/21 08:46:54;;;;;;;1.45;0.20;;;;;;;39.13;28.57;98471.31;7394859;19;20010;-57
2024/02/21 08:49:20;;;;;;;0.50;0.32;;;;;;;39.01;28.34;98462.38;7395257;19;20569;-56
2024/02/21 08:51:47;;;;;;;0.70;0.70;;;;;;;39.14;27.64;98441.44;7393975;19;20020;-56
2024/02/21 08:54:13;;;;;;;1.75;0.28;;;;;;;38.91;27.70;98447.72;7396062;19;20006;-56
2024/02/21 08:56:39;;;;;;;0.10;0.10;;;;;;;38.81;27.89;98424.31;7395660;19;20039;-56
2024/02/21 08:59:05;;;;;;;0.68;0.28;;;;;;;38.75;27.72;98415.50;7394975;19;20133;-57
2024/02/21 09:01:33;;;;;;;1.00;0.35;;;;;;;38.95;27.27;98404.81;7396118;19;20014;-57
2024/02/21 09:03:59;;;;;;;0.20;0.15;;;;;;;39.16;26.49;98388.31;7396763;19;20026;-56
2024/02/21 09:06:25;;;;;;;0.10;0.10;;;;;;;38.87;27.11;98392.34;7395690;19;20006;-56
2024/02/21 09:08:51;;;;;;;0.85;0.50;;;;;;;38.93;27.08;98387.31;7394431;19;20019;-56
2024/02/21 09:11:17;;;;;;;0.40;0.30;;;;;;;39.43;26.29;98375.44;7392833;19;20074;-56
2024/02/21 09:13:43;;;;;;;0.10;0.10;;;;;;;39.40;26.03;98368.88;7396330;19;20471;-56
2024/02/21 09:16:09;;;;;;;0.10;0.00;;;;;;;39.39;25.82;98357.94;7394392;19;20014;-56
2024/02/21 09:18:35;;;;;;;0.20;0.10;;;;;;;39.68;26.06;98345.06;7395275;19;20014;-56
2024/02/21 09:21:01;;;;;;;0.10;0.00;;;;;;;39.14;25.82;98332.94;7395695;19;20010;-56
2024/02/21 09:23:27;;;;;;;0.22;0.10;;;;;;;39.81;25.88;98332.03;7395468;19;20009;-56
2024/02/21 09:25:55;;;;;;;0.57;0.57;;;;;;;40.09;25.13;98326.38;7394193;19;20010;-56
2024/02/21 09:28:22;;;;;;;0.20;0.13;;;;;;;40.30;25.04;98306.03;7394500;19;20042;-56
2024/02/21 09:30:48;;;;;;;0.10;0.10;;;;;;;40.29;24.67;98289.97;7393848;19;20051;-57
2024/02/21 09:33:14;;;;;;;10.73;0.40;;;;;;;40.30;24.89;98279.78;7398119;19;20011;-54
2024/02/21 09:35:40;;;;;;;1.00;0.25;;;;;;;40.34;25.01;98268.84;7395128;19;20446;-56
2024/02/21 09:38:06;;;;;;;0.65;0.30;;;;;;;40.36;24.49;98260.09;7394702;19;20105;-57
2024/02/21 09:40:33;;;;;;;0.70;0.70;;;;;;;40.32;24.38;98260.09;7394691;19;20002;-54
2024/02/21 09:43:04;;;;;;;3.03;0.17;;;;;;;40.46;24.46;98239.00;7393798;19;20452;-57
2024/02/21 09:45:30;;;;;;;3.53;0.40;;;;;;;40.48;24.40;98241.94;7393340;19;20046;-57
2024/02/21 09:48:26;;;;;;;3.65;0.63;;;;;;;40.41;24.17;98232.44;7393476;19;20025;-57
2024/02/21 09:50:55;;;;;;;0.20;0.20;;;;;;;40.36;24.43;98219.25;7392703;19;20416;-57
2024/02/21 09:53:24;;;;;;;0.50;0.50;;;;;;;40.26;24.40;98212.66;7393658;19;20014;-57
2024/02/21 09:55:50;;;;;;;4.50;1.48;;;;;;;40.25;24.46;98197.34;7391845;19;20022;-56
2024/02/21 09:58:17;;;;;;;11.45;1.58;;;;;;;39.84;24.50;98190.63;7393720;19;20029;-57
2024/02/21 10:00:43;;;;;;;4.47;0.77;;;;;;;39.87;24.75;98177.50;7393881;19;20035;-57
2024/02/21 10:03:09;;;;;;;1.75;0.40;;;;;;;39.60;24.55;98175.94;7396988;19;20343;-57
2024/02/21 10:05:36;;;;;;;0.38;0.20;;;;;;;39.40;25.01;98178.72;7392921;19;20037;-56
2024/02/21 10:08:04;;;;;;;0.52;0.10;;;;;;;39.09;25.00;98157.41;7393881;19;20037;-56
2024/02/21 10:10:40;;;;;;;0.52;0.22;;;;;;;39.02;25.37;98164.63;7392939;19;20018;-56
2024/02/21 10:13:06;;;;;;;0.10;0.10;;;;;;;39.35;25.24;98148.13;7394005;19;20015;-56
2024/02/21 10:15:32;;;;;;;1.55;0.28;;;;;;;39.65;25.39;98121.31;7393320;19;20017;-56
2024/02/21 10:18:00;;;;;;;0.82;0.40;;;;;;;40.03;24.72;98104.66;7392867;19;20034;-57
2024/02/21 10:20:27;;;;;;;1.85;0.13;;;;;;;40.29;24.24;98103.22;7392616;19;20007;-57
2024/02/21 10:23:09;;;;;;;0.40;0.22;;;;;;;39.91;24.46;98095.16;7392731;19;20013;-57
2024/02/21 10:25:41;;;;;;;4.20;0.93;;;;;;;39.46;24.85;98100.09;7392045;19;20040;-57
2024/02/21 10:28:07;;;;;;;2.15;0.30;;;;;;;39.35;25.06;98089.84;7396603;19;20042;-57
2024/02/21 10:30:33;;;;;;;0.98;0.32;;;;;;;39.45;25.37;98081.13;7392276;19;20047;-58
2024/02/21 10:32:59;;;;;;;1.40;0.40;;;;;;;39.74;24.76;98079.81;7393510;19;20356;-56
2024/02/21 10:35:30;;;;;;;0.52;0.40;;;;;;;39.76;24.81;98082.72;7394262;19;20015;-55
2024/02/21 10:37:56;;;;;;;4.25;1.38;;;;;;;39.35;24.79;98081.81;7392888;19;20521;-55
2024/02/21 10:40:34;;;;;;;0.68;0.63;;;;;;;38.96;25.04;98067.78;7393239;19;20036;-55
2024/02/21 10:43:01;;;;;;;0.13;0.13;;;;;;;39.18;25.47;98059.19;7392050;19;20018;-55
2024/02/21 10:45:32;;;;;;;0.40;0.20;;;;;;;39.04;25.26;98038.69;7392191;19;20470;-55
2024/02/21 10:48:11;;;;;;;;;;;;;;;39.04;25.03;98032.88;7392956;19;20014;-55
2024/02/21 10:51:08;;;;;;;1.55;0.55;;;;;;;39.03;24.94;98031.41;7389698;19;19930;-56
2024/02/21 10:53:53;;;;;;;3.70;0.50;;;;;;;39.08;25.09;97997.94;7390700;19;20010;-55
2024/02/21 10:56:19;;;;;;;0.38;0.28;;;;;;;38.96;25.28;98003.72;7391149;19;20015;-57
2024/02/21 10:58:46;;;;;;;4.07;0.22;;;;;;;39.22;24.88;98021.31;7392182;19;20026;-57
2024/02/21 11:01:14;;;;;;;0.15;0.15;;;;;;;39.75;24.75;97996.72;7394580;19;20028;-57
2024/02/21 11:03:46;;;;;;;0.30;0.10;;;;;;;39.66;25.24;97998.16;7391834;19;20105;-57
2024/02/21 11:06:14;;;;;;;0.20;0.10;;;;;;;39.57;24.89;98008.31;7392122;19;20023;-57
2024/02/21 11:08:40;;;;;;;0.10;0.10;;;;;;;39.85;24.88;98005.47;7391990;19;20034;-56
2024/02/21 11:11:06;;;;;;;0.10;0.00;;;;;;;40.13;24.41;97980.72;7390552;19;20015;-57
2024/02/21 11:13:35;;;;;;;1.98;0.20;;;;;;;40.44;24.03;97985.81;7395636;19;20021;-55
2024/02/21 11:16:09;;;;;;;3.63;0.73;;;;;;;40.55;23.98;97977.75;7392009;19;20027;-57
2024/02/21 11:18:39;;;;;;;0.20;0.20;;;;;;;40.46;24.00;97964.66;7397331;19;20378;-57
2024/02/21 11:21:05;;;;;;;0.15;0.05;;;;;;;40.47;24.09;97960.25;7397481;19;20033;-57
2024/02/21 11:23:32;;;;;;;0.10;0.00;;;;;;;40.42;23.77;97952.97;7398292;19;20495;-57
2024/02/21 11:26:19;;;;;;;0.10;0.00;;;;;;;40.13;23.89;97950.06;7403653;19;20466;-57
2024/02/21 11:28:56;;;;;;;0.10;0.00;;;;;;;40.10;23.52;97942.78;7398338;19;20017;-57
2024/02/21 11:31:22;;;;;;;0.10;0.10;;;;;;;40.11;24.26;97944.25;7396707;19;20018;-56
2024/02/21 11:33:48;;;;;;;0.10;0.00;;;;;;;40.37;24.08;97923.03;7397025;19;20431;-57
2024/02/21 11:36:28;;;;;;;0.40;0.20;;;;;;;40.41;24.01;97922.34;7401187;19;20015;-57
2024/02/21 11:38:54;;;;;;;0.57;0.50;;;;;;;40.28;23.92;97923.81;7397540;19;20023;-57
2024/02/21 11:41:23;;;;;;;0.10;0.00;;;;;;;40.31;23.90;97925.97;7397637;19;20025;-57